sensor_id;sensor_type;location;lat;lon;timestamp;pressure;altitude;pressure_sealevel;temperature;humidity
28797;BME280;24974;54.444;18.560;2023-02-18T00:01:42;99461.44;;;9.19;58.25
28797;BME280;24974;54.444;18.560;2023-02-18T00:04:13;99424.88;;;9.66;56.92
28797;BME280;24974;54.444;18.560;2023-02-18T00:06:43;99458.41;;;8.74;58.29
28797;BME280;24974;54.444;18.560;2023-02-18T00:09:14;99441.56;;;9.31;57.23
28797;BME280;24974;54.444;18.560;2023-02-18T00:11:45;99451.25;;;8.99;57.82
28797;BME280;24974;54.444;18.560;2023-02-18T00:14:16;99453.69;;;9.21;57.75
28797;BME280;24974;54.444;18.560;2023-02-18T00:16:47;99475.22;;;9.40;57.63
28797;BME280;24974;54.444;18.560;2023-02-18T00:19:19;99449.09;;;9.05;58.63
28797;BME280;24974;54.444;18.560;2023-02-18T00:21:49;99464.19;;;9.19;57.89
28797;BME280;24974;54.444;18.560;2023-02-18T00:24:20;99469.34;;;8.83;57.02
28797;BME280;24974;54.444;18.560;2023-02-18T00:26:52;99474.09;;;9.03;57.58
28797;BME280;24974;54.444;18.560;2023-02-18T00:29:23;99476.66;;;9.38;56.40
28797;BME280;24974;54.444;18.560;2023-02-18T00:31:53;99502.72;;;9.52;56.33
28797;BME280;24974;54.444;18.560;2023-02-18T00:34:26;99494.88;;;9.42;56.35
28797;BME280;24974;54.444;18.560;2023-02-18T00:36:57;99483.38;;;9.19;56.51
28797;BME280;24974;54.444;18.560;2023-02-18T00:39:28;99490.59;;;8.86;57.01
28797;BME280;24974;54.444;18.560;2023-02-18T00:41:59;99492.88;;;9.22;55.27
28797;BME280;24974;54.444;18.560;2023-02-18T00:44:30;99524.50;;;9.87;54.29
28797;BME280;24974;54.444;18.560;2023-02-18T00:47:01;99501.44;;;10.00;53.60
28797;BME280;24974;54.444;18.560;2023-02-18T00:49:32;99534.50;;;9.24;53.92
28797;BME280;24974;54.444;18.560;2023-02-18T00:52:03;99508.59;;;9.42;53.67
28797;BME280;24974;54.444;18.560;2023-02-18T00:54:34;99518.44;;;9.43;53.44
28797;BME280;24974;54.444;18.560;2023-02-18T00:57:04;99547.09;;;9.84;52.79
28797;BME280;24974;54.444;18.560;2023-02-18T00:59:35;99527.69;;;9.89;52.30
28797;BME280;24974;54.444;18.560;2023-02-18T01:02:06;99534.09;;;9.43;53.24
28797;BME280;24974;54.444;18.560;2023-02-18T01:04:37;99565.03;;;9.81;52.39
28797;BME280;24974;54.444;18.560;2023-02-18T01:07:08;99531.34;;;9.43;53.72
28797;BME280;24974;54.444;18.560;2023-02-18T01:09:39;99534.53;;;10.04;52.38
28797;BME280;24974;54.444;18.560;2023-02-18T01:12:11;99558.50;;;9.27;53.98
28797;BME280;24974;54.444;18.560;2023-02-18T01:14:42;99563.56;;;9.84;52.87
28797;BME280;24974;54.444;18.560;2023-02-18T01:17:13;99563.31;;;9.68;52.85
28797;BME280;24974;54.444;18.560;2023-02-18T01:19:44;99550.50;;;9.81;52.87
28797;BME280;24974;54.444;18.560;2023-02-18T05:59:06;99807.66;;;8.14;51.57
28797;BME280;24974;54.444;18.560;2023-02-18T06:01:37;99801.91;;;8.25;52.08
28797;BME280;24974;54.444;18.560;2023-02-18T06:04:08;99836.63;;;8.38;51.81
28797;BME280;24974;54.444;18.560;2023-02-18T06:06:40;99843.78;;;8.25;51.17
28797;BME280;24974;54.444;18.560;2023-02-18T06:09:11;99855.13;;;8.10;52.11
28797;BME280;24974;54.444;18.560;2023-02-18T06:11:42;99847.72;;;8.81;50.49
28797;BME280;24974;54.444;18.560;2023-02-18T06:14:13;99834.53;;;8.75;50.63
28797;BME280;24974;54.444;18.560;2023-02-18T06:16:44;99850.97;;;8.35;51.92
28797;BME280;24974;54.444;18.560;2023-02-18T06:19:15;99872.53;;;8.36;51.75
28797;BME280;24974;54.444;18.560;2023-02-18T06:21:45;99834.44;;;7.95;52.24
28797;BME280;24974;54.444;18.560;2023-02-18T06:24:16;99856.00;;;8.19;52.27
28797;BME280;24974;54.444;18.560;2023-02-18T06:26:47;99844.34;;;8.36;51.54
28797;BME280;24974;54.444;18.560;2023-02-18T06:29:18;99859.38;;;8.47;51.12
28797;BME280;24974;54.444;18.560;2023-02-18T06:31:48;99889.06;;;8.09;52.26
28797;BME280;24974;54.444;18.560;2023-02-18T06:34:19;99881.81;;;9.06;49.86
28797;BME280;24974;54.444;18.560;2023-02-18T06:36:50;99857.25;;;8.75;51.18
28797;BME280;24974;54.444;18.560;2023-02-18T06:39:21;99892.13;;;8.07;52.65
28797;BME280;24974;54.444;18.560;2023-02-18T06:41:52;99883.59;;;8.31;51.55
28797;BME280;24974;54.444;18.560;2023-02-18T06:44:22;99897.31;;;9.11;50.36
28797;BME280;24974;54.444;18.560;2023-02-18T06:46:53;99885.63;;;8.26;51.72
28797;BME280;24974;54.444;18.560;2023-02-18T06:49:24;99907.09;;;8.32;52.65
28797;BME280;24974;54.444;18.560;2023-02-18T06:51:55;99903.19;;;8.47;51.42
28797;BME280;24974;54.444;18.560;2023-02-18T06:54:26;99934.38;;;8.37;51.63
28797;BME280;24974;54.444;18.560;2023-02-18T06:56:57;99903.59;;;9.20;50.23
28797;BME280;24974;54.444;18.560;2023-02-18T06:59:28;99912.66;;;8.19;51.62
28797;BME280;24974;54.444;18.560;2023-02-18T07:01:58;99908.91;;;8.59;51.74
28797;BME280;24974;54.444;18.560;2023-02-18T07:04:29;99920.91;;;8.50;51.27
28797;BME280;24974;54.444;18.560;2023-02-18T07:07:00;99943.19;;;8.34;51.93
28797;BME280;24974;54.444;18.560;2023-02-18T07:09:31;99930.16;;;8.93;50.66
28797;BME280;24974;54.444;18.560;2023-02-18T07:12:02;99900.41;;;8.69;51.51
28797;BME280;24974;54.444;18.560;2023-02-18T07:14:33;99929.06;;;8.41;51.61
28797;BME280;24974;54.444;18.560;2023-02-18T07:17:04;99932.78;;;8.67;50.95
28797;BME280;24974;54.444;18.560;2023-02-18T07:19:34;99931.56;;;8.82;50.77
28797;BME280;24974;54.444;18.560;2023-02-18T07:22:05;99954.72;;;9.07;50.23
28797;BME280;24974;54.444;18.560;2023-02-18T07:24:36;99940.34;;;8.39;51.55
28797;BME280;24974;54.444;18.560;2023-02-18T07:27:07;99953.84;;;8.58;50.49
28797;BME280;24974;54.444;18.560;2023-02-18T07:29:37;99961.03;;;8.32;51.58
28797;BME280;24974;54.444;18.560;2023-02-18T07:32:11;99976.97;;;8.75;50.39
28797;BME280;24974;54.444;18.560;2023-02-18T07:34:42;99942.78;;;9.12;49.91
28797;BME280;24974;54.444;18.560;2023-02-18T07:37:13;99936.66;;;8.66;50.73
28797;BME280;24974;54.444;18.560;2023-02-18T07:39:44;99970.31;;;8.22;51.86
28797;BME280;24974;54.444;18.560;2023-02-18T07:42:15;99947.44;;;9.11;49.79
28797;BME280;24974;54.444;18.560;2023-02-18T07:44:48;99948.09;;;8.68;50.40
28797;BME280;24974;54.444;18.560;2023-02-18T07:47:18;99952.31;;;8.75;51.03
28797;BME280;24974;54.444;18.560;2023-02-18T07:49:49;99959.75;;;8.52;51.11
28797;BME280;24974;54.444;18.560;2023-02-18T07:52:20;99963.84;;;8.63;50.57
28797;BME280;24974;54.444;18.560;2023-02-18T07:54:51;99992.56;;;8.43;50.75
28797;BME280;24974;54.444;18.560;2023-02-18T07:57:22;99955.63;;;9.60;48.87
28797;BME280;24974;54.444;18.560;2023-02-18T07:59:53;99986.75;;;8.67;50.66
28797;BME280;24974;54.444;18.560;2023-02-18T08:02:24;99969.16;;;8.90;50.50
28797;BME280;24974;54.444;18.560;2023-02-18T08:04:54;99992.25;;;8.67;50.35
28797;BME280;24974;54.444;18.560;2023-02-18T08:07:25;99960.81;;;8.42;51.01
28797;BME280;24974;54.444;18.560;2023-02-18T08:09:56;99976.91;;;8.66;50.62
28797;BME280;24974;54.444;18.560;2023-02-18T08:12:27;99968.09;;;9.83;48.38
28797;BME280;24974;54.444;18.560;2023-02-18T08:14:58;99973.41;;;8.74;49.74
28797;BME280;24974;54.444;18.560;2023-02-18T08:17:29;99968.22;;;9.04;49.64
28797;BME280;24974;54.444;18.560;2023-02-18T08:19:59;99972.84;;;9.34;49.49
28797;BME280;24974;54.444;18.560;2023-02-18T08:22:30;99979.00;;;9.40;48.47
28797;BME280;24974;54.444;18.560;2023-02-18T08:25:01;99985.97;;;9.55;48.67
28797;BME280;24974;54.444;18.560;2023-02-18T08:27:32;99981.22;;;8.89;50.17
28797;BME280;24974;54.444;18.560;2023-02-18T08:30:03;99998.94;;;9.23;48.70
28797;BME280;24974;54.444;18.560;2023-02-18T08:32:34;99992.09;;;8.72;50.20
28797;BME280;24974;54.444;18.560;2023-02-18T08:35:05;100008.25;;;9.70;48.27
28797;BME280;24974;54.444;18.560;2023-02-18T08:37:37;100010.13;;;9.04;49.30
28797;BME280;24974;54.444;18.560;2023-02-18T08:40:08;99995.63;;;8.73;50.97
28797;BME280;24974;54.444;18.560;2023-02-18T08:42:39;100012.88;;;9.04;49.50
28797;BME280;24974;54.444;18.560;2023-02-18T08:45:10;100017.50;;;9.26;49.47
28797;BME280;24974;54.444;18.560;2023-02-18T08:47:41;100020.59;;;9.33;49.44
28797;BME280;24974;54.444;18.560;2023-02-18T08:50:12;100014.38;;;9.10;50.00
28797;BME280;24974;54.444;18.560;2023-02-18T08:52:42;100042.41;;;9.47;49.07
28797;BME280;24974;54.444;18.560;2023-02-18T08:55:13;100022.94;;;9.17;49.74
28797;BME280;24974;54.444;18.560;2023-02-18T08:57:44;100027.13;;;9.55;48.78
28797;BME280;24974;54.444;18.560;2023-02-18T09:00:16;100021.97;;;9.22;49.40
28797;BME280;24974;54.444;18.560;2023-02-18T09:02:47;100031.97;;;9.58;48.70
28797;BME280;24974;54.444;18.560;2023-02-18T09:05:18;100040.47;;;9.08;50.04
28797;BME280;24974;54.444;18.560;2023-02-18T09:07:49;100020.00;;;9.53;49.19
28797;BME280;24974;54.444;18.560;2023-02-18T09:10:20;100042.06;;;9.40;49.40
28797;BME280;24974;54.444;18.560;2023-02-18T09:12:50;100026.28;;;10.37;47.72
28797;BME280;24974;54.444;18.560;2023-02-18T09:15:21;100036.25;;;10.16;47.49
28797;BME280;24974;54.444;18.560;2023-02-18T09:17:52;100040.44;;;10.22;47.40
28797;BME280;24974;54.444;18.560;2023-02-18T09:20:23;100034.84;;;9.52;48.87
28797;BME280;24974;54.444;18.560;2023-02-18T09:22:54;100047.69;;;10.00;48.17
28797;BME280;24974;54.444;18.560;2023-02-18T09:25:25;100046.94;;;9.51;49.18
28797;BME280;24974;54.444;18.560;2023-02-18T09:27:56;100041.66;;;9.64;48.83
28797;BME280;24974;54.444;18.560;2023-02-18T09:30:27;100059.22;;;10.37;47.10
28797;BME280;24974;54.444;18.560;2023-02-18T09:32:57;100048.69;;;10.22;47.24
28797;BME280;24974;54.444;18.560;2023-02-18T09:35:28;100071.59;;;10.00;47.24
28797;BME280;24974;54.444;18.560;2023-02-18T09:37:59;100074.66;;;9.98;47.70
28797;BME280;24974;54.444;18.560;2023-02-18T09:40:32;100074.97;;;9.79;47.85
28797;BME280;24974;54.444;18.560;2023-02-18T09:43:05;100071.03;;;10.38;46.49
28797;BME280;24974;54.444;18.560;2023-02-18T09:45:37;100068.53;;;10.01;46.50
28797;BME280;24974;54.444;18.560;2023-02-18T09:48:10;100072.97;;;10.46;46.02
28797;BME280;24974;54.444;18.560;2023-02-18T09:50:41;100084.28;;;10.27;46.01
28797;BME280;24974;54.444;18.560;2023-02-18T09:53:12;100089.66;;;9.92;46.83
28797;BME280;24974;54.444;18.560;2023-02-18T09:55:44;100093.56;;;10.08;45.90
28797;BME280;24974;54.444;18.560;2023-02-18T09:58:34;100087.97;;;10.31;45.64
28797;BME280;24974;54.444;18.560;2023-02-18T10:04:15;100091.44;;;9.40;46.22
28797;BME280;24974;54.444;18.560;2023-02-18T10:06:49;100112.44;;;10.01;44.92
28797;BME280;24974;54.444;18.560;2023-02-18T10:09:24;100104.13;;;9.67;46.09
28797;BME280;24974;54.444;18.560;2023-02-18T10:12:14;100086.03;;;9.66;45.84
28797;BME280;24974;54.444;18.560;2023-02-18T10:14:51;100089.88;;;10.22;44.85
28797;BME280;24974;54.444;18.560;2023-02-18T10:17:24;100100.56;;;10.41;45.06
28797;BME280;24974;54.444;18.560;2023-02-18T10:19:57;100108.91;;;10.09;45.71
28797;BME280;24974;54.444;18.560;2023-02-18T10:22:29;100107.63;;;10.07;46.08
28797;BME280;24974;54.444;18.560;2023-02-18T10:25:03;100094.94;;;10.28;45.62
28797;BME280;24974;54.444;18.560;2023-02-18T10:27:37;100101.81;;;11.04;44.19
28797;BME280;24974;54.444;18.560;2023-02-18T10:30:29;100094.28;;;10.57;45.38
28797;BME280;24974;54.444;18.560;2023-02-18T10:36:20;100094.22;;;10.14;45.32
28797;BME280;24974;54.444;18.560;2023-02-18T10:42:02;100101.84;;;10.26;46.11
28797;BME280;24974;54.444;18.560;2023-02-18T10:45:03;100085.75;;;9.85;47.03
28797;BME280;24974;54.444;18.560;2023-02-18T10:47:46;100103.00;;;10.77;44.90
28797;BME280;24974;54.444;18.560;2023-02-18T10:50:39;100103.66;;;10.30;45.91
28797;BME280;24974;54.444;18.560;2023-02-18T10:53:21;100102.81;;;9.56;46.02
28797;BME280;24974;54.444;18.560;2023-02-18T10:55:54;100110.94;;;10.35;43.66
28797;BME280;24974;54.444;18.560;2023-02-18T10:58:45;100079.94;;;9.86;45.35
28797;BME280;24974;54.444;18.560;2023-02-18T11:01:19;100086.69;;;10.46;44.41
28797;BME280;24974;54.444;18.560;2023-02-18T11:04:04;100096.50;;;10.99;43.41
28797;BME280;24974;54.444;18.560;2023-02-18T11:06:42;100101.69;;;10.22;44.21
28797;BME280;24974;54.444;18.560;2023-02-18T11:09:41;100088.38;;;9.98;45.25
28797;BME280;24974;54.444;18.560;2023-02-18T11:12:34;100096.53;;;10.38;44.86
28797;BME280;24974;54.444;18.560;2023-02-18T11:17:46;100066.00;;;10.31;44.82
28797;BME280;24974;54.444;18.560;2023-02-18T11:20:33;100079.03;;;10.08;45.08
28797;BME280;24974;54.444;18.560;2023-02-18T11:25:38;100084.59;;;10.69;43.78
28797;BME280;24974;54.444;18.560;2023-02-18T11:30:52;100098.63;;;10.41;43.88
28797;BME280;24974;54.444;18.560;2023-02-18T11:33:27;100089.59;;;10.75;42.83
28797;BME280;24974;54.444;18.560;2023-02-18T11:39:05;100075.03;;;10.75;43.09
28797;BME280;24974;54.444;18.560;2023-02-18T11:41:54;100074.69;;;10.85;42.74
28797;BME280;24974;54.444;18.560;2023-02-18T11:44:29;100064.50;;;11.70;42.24
28797;BME280;24974;54.444;18.560;2023-02-18T11:47:04;100062.09;;;11.39;42.50
28797;BME280;24974;54.444;18.560;2023-02-18T11:49:35;100073.50;;;11.59;41.19
28797;BME280;24974;54.444;18.560;2023-02-18T11:52:27;100081.84;;;10.60;42.47
28797;BME280;24974;54.444;18.560;2023-02-18T11:57:30;100071.41;;;11.56;40.52
28797;BME280;24974;54.444;18.560;2023-02-18T12:00:05;100073.19;;;11.52;40.95
28797;BME280;24974;54.444;18.560;2023-02-18T12:02:45;100063.09;;;10.62;43.23
28797;BME280;24974;54.444;18.560;2023-02-18T12:05:22;100065.84;;;10.36;43.44
28797;BME280;24974;54.444;18.560;2023-02-18T12:08:01;100083.81;;;12.00;39.85
28797;BME280;24974;54.444;18.560;2023-02-18T12:13:24;100087.34;;;12.30;39.20
28797;BME280;24974;54.444;18.560;2023-02-18T12:44:11;100075.44;;;11.11;43.79
28797;BME280;24974;54.444;18.560;2023-02-18T12:47:06;100058.03;;;9.95;46.26
28797;BME280;24974;54.444;18.560;2023-02-18T12:50:05;100056.56;;;11.01;43.85
28797;BME280;24974;54.444;18.560;2023-02-18T13:04:51;100090.56;;;10.53;44.70
28797;BME280;24974;54.444;18.560;2023-02-18T13:13:25;100046.09;;;10.77;44.67
28797;BME280;24974;54.444;18.560;2023-02-18T13:16:09;100073.19;;;10.01;47.11
28797;BME280;24974;54.444;18.560;2023-02-18T13:18:46;100064.69;;;10.72;45.84
28797;BME280;24974;54.444;18.560;2023-02-18T13:21:21;100063.38;;;10.86;45.43
28797;BME280;24974;54.444;18.560;2023-02-18T13:23:58;100061.78;;;10.42;46.08
28797;BME280;24974;54.444;18.560;2023-02-18T13:26:32;100066.78;;;10.57;45.24
28797;BME280;24974;54.444;18.560;2023-02-18T13:29:24;100058.97;;;11.03;45.05
28797;BME280;24974;54.444;18.560;2023-02-18T13:40:22;100070.84;;;10.25;46.79
28797;BME280;24974;54.444;18.560;2023-02-18T13:46:23;100074.06;;;10.71;45.72
28797;BME280;24974;54.444;18.560;2023-02-18T13:49:04;100067.78;;;10.35;46.34
28797;BME280;24974;54.444;18.560;2023-02-18T13:51:44;100066.63;;;10.80;45.69
28797;BME280;24974;54.444;18.560;2023-02-18T13:57:18;100067.53;;;11.86;43.89
28797;BME280;24974;54.444;18.560;2023-02-18T13:59:56;100078.59;;;10.49;46.88
28797;BME280;24974;54.444;18.560;2023-02-18T14:02:33;100074.72;;;10.50;46.73
28797;BME280;24974;54.444;18.560;2023-02-18T14:10:37;100063.22;;;10.83;46.67
28797;BME280;24974;54.444;18.560;2023-02-18T14:13:38;100062.06;;;9.89;48.41
28797;BME280;24974;54.444;18.560;2023-02-18T14:16:12;100057.28;;;10.29;47.78
28797;BME280;24974;54.444;18.560;2023-02-18T14:24:09;100060.31;;;10.79;46.00
28797;BME280;24974;54.444;18.560;2023-02-18T14:26:46;100049.47;;;9.96;48.06
28797;BME280;24974;54.444;18.560;2023-02-18T14:29:29;100071.56;;;9.82;48.45
28797;BME280;24974;54.444;18.560;2023-02-18T14:32:09;100062.75;;;10.63;46.66
28797;BME280;24974;54.444;18.560;2023-02-18T14:44:19;100055.44;;;10.93;46.25
28797;BME280;24974;54.444;18.560;2023-02-18T14:49:43;100062.22;;;10.09;48.06
28797;BME280;24974;54.444;18.560;2023-02-18T14:55:21;100077.94;;;10.26;46.82
28797;BME280;24974;54.444;18.560;2023-02-18T14:57:56;100067.34;;;9.85;47.74
28797;BME280;24974;54.444;18.560;2023-02-18T15:00:34;100082.09;;;9.98;47.06
28797;BME280;24974;54.444;18.560;2023-02-18T15:03:14;100073.84;;;9.89;47.81
28797;BME280;24974;54.444;18.560;2023-02-18T15:05:46;100069.88;;;10.47;46.42
28797;BME280;24974;54.444;18.560;2023-02-18T15:08:36;100076.84;;;10.36;46.37
28797;BME280;24974;54.444;18.560;2023-02-18T15:11:09;100072.59;;;10.13;46.98
28797;BME280;24974;54.444;18.560;2023-02-18T15:13:43;100083.69;;;9.90;47.51
28797;BME280;24974;54.444;18.560;2023-02-18T15:16:19;100088.78;;;9.66;47.57
28797;BME280;24974;54.444;18.560;2023-02-18T15:18:58;100089.47;;;9.71;48.46
28797;BME280;24974;54.444;18.560;2023-02-18T15:21:36;100090.00;;;10.08;47.83
28797;BME280;24974;54.444;18.560;2023-02-18T15:27:16;100083.59;;;9.56;49.68
28797;BME280;24974;54.444;18.560;2023-02-18T15:29:50;100094.78;;;9.76;49.12
28797;BME280;24974;54.444;18.560;2023-02-18T15:32:24;100095.09;;;9.75;49.02
28797;BME280;24974;54.444;18.560;2023-02-18T15:35:01;100100.91;;;9.65;49.50
28797;BME280;24974;54.444;18.560;2023-02-18T15:37:32;100096.25;;;9.74;49.33
28797;BME280;24974;54.444;18.560;2023-02-18T15:40:08;100093.13;;;9.27;50.99
28797;BME280;24974;54.444;18.560;2023-02-18T15:42:45;100100.44;;;9.32;51.14
28797;BME280;24974;54.444;18.560;2023-02-18T15:45:24;100100.56;;;9.66;50.14
28797;BME280;24974;54.444;18.560;2023-02-18T15:48:00;100106.91;;;9.84;49.86
28797;BME280;24974;54.444;18.560;2023-02-18T15:50:37;100108.97;;;9.70;50.28
28797;BME280;24974;54.444;18.560;2023-02-18T15:53:15;100109.44;;;9.23;51.37
28797;BME280;24974;54.444;18.560;2023-02-18T15:55:50;100105.41;;;10.26;49.04
28797;BME280;24974;54.444;18.560;2023-02-18T16:01:03;100089.72;;;8.90;51.99
28797;BME280;24974;54.444;18.560;2023-02-18T16:06:29;100089.50;;;9.09;51.50
28797;BME280;24974;54.444;18.560;2023-02-18T16:09:29;100104.47;;;9.74;50.74
28797;BME280;24974;54.444;18.560;2023-02-18T16:12:02;100111.50;;;9.58;51.26
28797;BME280;24974;54.444;18.560;2023-02-18T16:14:45;100111.97;;;9.51;51.21
28797;BME280;24974;54.444;18.560;2023-02-18T16:17:20;100109.78;;;8.77;52.81
28797;BME280;24974;54.444;18.560;2023-02-18T16:19:56;100110.13;;;9.07;51.97
28797;BME280;24974;54.444;18.560;2023-02-18T16:25:23;100111.13;;;9.90;50.68
28797;BME280;24974;54.444;18.560;2023-02-18T16:30:33;100125.50;;;9.16;51.77
28797;BME280;24974;54.444;18.560;2023-02-18T16:33:04;100117.59;;;9.94;49.68
28797;BME280;24974;54.444;18.560;2023-02-18T16:35:35;100133.19;;;8.83;52.21
28797;BME280;24974;54.444;18.560;2023-02-18T16:38:06;100128.78;;;9.58;50.60
28797;BME280;24974;54.444;18.560;2023-02-18T16:40:41;100135.03;;;8.74;52.73
28797;BME280;24974;54.444;18.560;2023-02-18T16:43:17;100132.16;;;9.55;50.98
28797;BME280;24974;54.444;18.560;2023-02-18T16:45:55;100142.56;;;9.75;49.92
28797;BME280;24974;54.444;18.560;2023-02-18T16:48:30;100138.59;;;9.50;51.00
28797;BME280;24974;54.444;18.560;2023-02-18T16:51:17;100142.53;;;8.82;52.42
28797;BME280;24974;54.444;18.560;2023-02-18T16:53:50;100142.03;;;9.03;51.84
28797;BME280;24974;54.444;18.560;2023-02-18T16:56:26;100148.09;;;9.22;51.58
28797;BME280;24974;54.444;18.560;2023-02-18T16:58:59;100144.06;;;8.52;52.82
28797;BME280;24974;54.444;18.560;2023-02-18T17:04:03;100158.03;;;8.87;52.38
28797;BME280;24974;54.444;18.560;2023-02-18T17:06:35;100154.78;;;8.62;52.93
28797;BME280;24974;54.444;18.560;2023-02-18T17:09:20;100164.69;;;8.94;51.77
28797;BME280;24974;54.444;18.560;2023-02-18T17:11:54;100158.84;;;8.87;52.04
28797;BME280;24974;54.444;18.560;2023-02-18T17:14:25;100162.22;;;8.84;52.46
28797;BME280;24974;54.444;18.560;2023-02-18T17:16:56;100179.41;;;8.62;52.49
28797;BME280;24974;54.444;18.560;2023-02-18T17:19:27;100168.09;;;8.41;53.43
28797;BME280;24974;54.444;18.560;2023-02-18T17:21:58;100178.97;;;8.83;52.27
28797;BME280;24974;54.444;18.560;2023-02-18T17:24:29;100180.50;;;8.75;52.09
28797;BME280;24974;54.444;18.560;2023-02-18T17:27:00;100181.84;;;9.00;52.08
28797;BME280;24974;54.444;18.560;2023-02-18T17:29:31;100181.59;;;8.52;53.04
28797;BME280;24974;54.444;18.560;2023-02-18T17:32:04;100198.72;;;9.16;51.77
28797;BME280;24974;54.444;18.560;2023-02-18T17:34:36;100196.84;;;9.03;52.05
28797;BME280;24974;54.444;18.560;2023-02-18T17:37:11;100208.69;;;9.34;51.76
28797;BME280;24974;54.444;18.560;2023-02-18T17:39:43;100211.53;;;8.84;52.73
28797;BME280;24974;54.444;18.560;2023-02-18T17:42:14;100207.31;;;9.23;52.03
28797;BME280;24974;54.444;18.560;2023-02-18T17:44:45;100224.13;;;8.72;53.20
28797;BME280;24974;54.444;18.560;2023-02-18T17:47:15;100230.09;;;8.87;52.54
28797;BME280;24974;54.444;18.560;2023-02-18T17:49:46;100227.56;;;8.91;52.48
28797;BME280;24974;54.444;18.560;2023-02-18T17:52:30;100224.94;;;8.72;52.83
28797;BME280;24974;54.444;18.560;2023-02-18T17:55:09;100240.81;;;8.97;52.56
28797;BME280;24974;54.444;18.560;2023-02-18T17:57:42;100228.06;;;8.79;53.18
28797;BME280;24974;54.444;18.560;2023-02-18T18:00:21;100237.38;;;8.92;53.05
28797;BME280;24974;54.444;18.560;2023-02-18T18:02:52;100242.91;;;8.78;53.43
28797;BME280;24974;54.444;18.560;2023-02-18T18:05:35;100242.44;;;8.62;53.35
28797;BME280;24974;54.444;18.560;2023-02-18T18:08:06;100247.06;;;9.12;52.42
28797;BME280;24974;54.444;18.560;2023-02-18T18:10:40;100249.34;;;8.96;52.92
28797;BME280;24974;54.444;18.560;2023-02-18T18:13:23;100254.94;;;8.91;53.02
28797;BME280;24974;54.444;18.560;2023-02-18T18:15:54;100243.97;;;8.55;53.73
28797;BME280;24974;54.444;18.560;2023-02-18T18:18:26;100261.91;;;8.20;54.56
28797;BME280;24974;54.444;18.560;2023-02-18T18:20:58;100247.75;;;8.81;52.83
28797;BME280;24974;54.444;18.560;2023-02-18T18:23:31;100254.22;;;8.35;53.86
28797;BME280;24974;54.444;18.560;2023-02-18T18:26:05;100253.69;;;8.47;53.69
28797;BME280;24974;54.444;18.560;2023-02-18T18:28:35;100252.97;;;8.69;52.93
28797;BME280;24974;54.444;18.560;2023-02-18T18:31:12;100257.16;;;8.53;53.51
28797;BME280;24974;54.444;18.560;2023-02-18T18:33:45;100260.06;;;8.15;54.32
28797;BME280;24974;54.444;18.560;2023-02-18T18:36:19;100273.47;;;8.30;54.05
28797;BME280;24974;54.444;18.560;2023-02-18T18:38:51;100276.50;;;7.69;55.94
28797;BME280;24974;54.444;18.560;2023-02-18T18:41:22;100268.69;;;8.08;54.44
28797;BME280;24974;54.444;18.560;2023-02-18T18:43:52;100274.16;;;8.22;54.57
28797;BME280;24974;54.444;18.560;2023-02-18T18:46:23;100268.50;;;9.10;52.44
28797;BME280;24974;54.444;18.560;2023-02-18T18:48:54;100275.28;;;8.76;53.02
28797;BME280;24974;54.444;18.560;2023-02-18T18:51:28;100285.66;;;8.52;53.61
28797;BME280;24974;54.444;18.560;2023-02-18T18:53:59;100276.56;;;8.10;54.60
28797;BME280;24974;54.444;18.560;2023-02-18T18:56:30;100277.69;;;8.09;54.98
28797;BME280;24974;54.444;18.560;2023-02-18T18:59:01;100280.41;;;7.81;55.44
28797;BME280;24974;54.444;18.560;2023-02-18T19:01:32;100285.75;;;8.60;53.68
28797;BME280;24974;54.444;18.560;2023-02-18T19:04:03;100279.88;;;8.39;54.13
28797;BME280;24974;54.444;18.560;2023-02-18T19:06:33;100293.84;;;7.64;55.83
28797;BME280;24974;54.444;18.560;2023-02-18T19:09:04;100279.28;;;7.82;55.38
28797;BME280;24974;54.444;18.560;2023-02-18T19:11:35;100287.34;;;8.34;54.22
28797;BME280;24974;54.444;18.560;2023-02-18T19:14:07;100286.72;;;8.23;54.81
28797;BME280;24974;54.444;18.560;2023-02-18T19:16:42;100292.19;;;8.09;54.91
28797;BME280;24974;54.444;18.560;2023-02-18T19:19:12;100293.88;;;7.92;54.90
28797;BME280;24974;54.444;18.560;2023-02-18T19:21:43;100283.19;;;8.23;54.55
28797;BME280;24974;54.444;18.560;2023-02-18T19:24:15;100278.13;;;8.02;55.02
28797;BME280;24974;54.444;18.560;2023-02-18T19:26:46;100284.28;;;8.08;55.07
28797;BME280;24974;54.444;18.560;2023-02-18T19:29:17;100292.31;;;8.18;54.80
28797;BME280;24974;54.444;18.560;2023-02-18T19:31:50;100304.41;;;7.84;55.49
28797;BME280;24974;54.444;18.560;2023-02-18T19:34:20;100299.94;;;8.49;54.31
28797;BME280;24974;54.444;18.560;2023-02-18T19:36:52;100294.22;;;8.18;55.00
28797;BME280;24974;54.444;18.560;2023-02-18T19:39:23;100305.28;;;8.12;55.63
28797;BME280;24974;54.444;18.560;2023-02-18T19:41:54;100317.25;;;8.03;55.64
28797;BME280;24974;54.444;18.560;2023-02-18T19:44:24;100315.03;;;8.32;54.58
28797;BME280;24974;54.444;18.560;2023-02-18T19:46:55;100320.97;;;8.67;53.39
28797;BME280;24974;54.444;18.560;2023-02-18T19:49:28;100325.66;;;8.34;53.83
28797;BME280;24974;54.444;18.560;2023-02-18T19:51:59;100328.88;;;7.95;55.26
28797;BME280;24974;54.444;18.560;2023-02-18T19:54:33;100331.69;;;7.90;55.70
28797;BME280;24974;54.444;18.560;2023-02-18T19:57:04;100327.22;;;8.40;54.61
28797;BME280;24974;54.444;18.560;2023-02-18T19:59:37;100333.75;;;7.98;55.49
28797;BME280;24974;54.444;18.560;2023-02-18T20:02:12;100326.91;;;8.41;54.85
28797;BME280;24974;54.444;18.560;2023-02-18T20:04:43;100351.91;;;8.07;55.12
28797;BME280;24974;54.444;18.560;2023-02-18T20:07:15;100339.56;;;8.24;55.45
28797;BME280;24974;54.444;18.560;2023-02-18T20:09:50;100354.97;;;7.54;56.41
28797;BME280;24974;54.444;18.560;2023-02-18T20:12:22;100356.47;;;8.12;55.35